Monte — V2FS2 — position and weather

sailwx.info

Track history (hours):
 
Tides and Currents Weather Stations Pressure Air Temp Water Temp Dewpoint Dewpoint Depression Visibility Wind Speed Wind Dir Waves Ship Positions

Monte

Last reported at 2017-Feb-20 11:31 UTC. Time now 2017-Feb-28 12:53 UTC.
Position N 38°19' W 010°01'.
Warning: this ship's position is 8 days out of date.

Length 104 m; draft 5.6 m.

Type: Cargo ship. MMSI: 305777000.

Date/timePositionNaut miles runAvg speedWind from/ knotsBaromVisibWave heightAir tempDewpointWater temp
2017-Feb-20 11:31N 38°19' W 010°01'3110.3
2017-Feb-20 08:33N 38°49' W 010°08'1010.3
2017-Feb-20 07:33N 38°59' W 010°08'10 9.9
2017-Feb-20 06:33N 39°09' W 010°08'1010.4
2017-Feb-20 05:33N 39°20' W 010°08'1110.6
2017-Feb-20 04:33N 39°30' W 010°08'1110.5
2017-Feb-20 03:32N 39°41' W 010°08'1210.6
2017-Feb-20 02:24N 39°53' W 010°08'  
2017-Feb-17 08:33N 49°30' W 004°19'9 9.3
2017-Feb-17 07:33N 49°35' W 004°07'10 9.9
2017-Feb-17 06:33N 49°40' W 003°54'1110.5
2017-Feb-17 05:33N 49°46' W 003°40'1111.2
2017-Feb-17 04:33N 49°51' W 003°25'1111.3
2017-Feb-17 03:33N 49°57' W 003°10'1110.8
2017-Feb-17 02:33N 50°01' W 002°55'22 8.9
2017-Feb-17 00:04N 50°09' W 002°23'30 8.5
2017-Feb-16 20:33N 50°31' W 001°50'1010.5
2017-Feb-16 19:33N 50°39' W 001°39'1211.5
2017-Feb-16 18:34N 50°45' W 001°24'8 7.7
2017-Feb-16 17:33N 50°53' W 001°23'0 0.2
2017-Feb-16 16:07N 50°53' W 001°24'0 0.0
2017-Feb-16 08:31N 50°53' W 001°24'0 0.0
2017-Feb-15 22:16N 50°53' W 001°24'1 1.9
2017-Feb-15 21:33N 50°52' W 001°22'7 7.4
2017-Feb-15 20:34N 50°47' W 001°13'6 6.1
2017-Feb-15 19:34N 50°44' W 001°05'2 2.2
2017-Feb-15 18:33N 50°43' W 001°03'0 0.0
2017-Feb-15 17:33N 50°43' W 001°03'0 0.1
2017-Feb-15 16:33N 50°43' W 001°03'0 0.0
2017-Feb-15 15:33N 50°43' W 001°03'0 0.0
2017-Feb-15 14:33N 50°43' W 001°03'0 0.0
2017-Feb-15 13:33N 50°43' W 001°03'0 0.0
2017-Feb-15 12:33N 50°43' W 001°03'0 0.0
2017-Feb-15 11:33N 50°43' W 001°03'0 0.1
2017-Feb-15 10:33N 50°43' W 001°03'0 0.0
2017-Feb-15 09:32N 50°43' W 001°03'0 0.0
2017-Feb-15 08:32N 50°43' W 001°03'0 0.3
2017-Feb-15 07:33N 50°42' W 001°02'9 8.5
2017-Feb-15 06:33N 50°38' W 000°51'7 7.0
2017-Feb-15 05:33N 50°37' W 000°40'7 7.0
2017-Feb-15 04:33N 50°36' W 000°29'7 7.1
2017-Feb-15 03:33N 50°34' W 000°18'8 8.0
2017-Feb-15 02:33N 50°33' W 000°06'9 8.5
2017-Feb-15 01:30N 50°34' E 000°08'8 8.3
2017-Feb-15 00:33N 50°36' E 000°20'8 8.0
2017-Feb-14 23:33N 50°38' E 000°32'8 7.9
2017-Feb-14 22:33N 50°43' E 000°43'8 8.4
2017-Feb-14 21:33N 50°48' E 000°53'9 9.4
2017-Feb-14 20:33N 50°53' E 001°06'1010.4
2017-Feb-14 19:33N 50°60' E 001°18'1111.1
2017-Feb-14 18:33N 51°07' E 001°32'10 9.7
2017-Feb-14 17:33N 51°13' E 001°44'9 8.5
2017-Feb-14 16:33N 51°20' E 001°51'8 7.9
2017-Feb-14 15:33N 51°27' E 001°57'9 8.8
2017-Feb-14 14:33N 51°34' E 002°06'6210.3
2017-Feb-14 08:33N 52°04' E 003°34'1111.1
2017-Feb-14 07:34N 52°03' E 003°52'1110.7
2017-Feb-14 06:34N 51°58' E 004°08'1010.2
2017-Feb-14 05:34N 51°54' E 004°23'4 3.8
2017-Feb-14 04:33N 51°54' E 004°29'0 0.0
2017-Feb-14 03:33N 51°54' E 004°29'0 0.0
2017-Feb-14 02:33N 51°54' E 004°29'0 0.0
2017-Feb-14 01:33N 51°54' E 004°29'0 0.0
2017-Feb-14 00:33N 51°54' E 004°29'0 0.0
2017-Feb-13 23:33N 51°54' E 004°29'0 0.0
2017-Feb-13 22:33N 51°54' E 004°29'0 0.0
2017-Feb-13 21:33N 51°54' E 004°29'0 0.0
2017-Feb-13 20:33N 51°54' E 004°29'0 0.0
2017-Feb-13 19:33N 51°54' E 004°29'0 0.0
2017-Feb-13 18:33N 51°54' E 004°29'0 0.0
2017-Feb-13 17:33N 51°54' E 004°29'0 0.0
2017-Feb-13 16:32N 51°54' E 004°29'0 0.0
2017-Feb-13 15:33N 51°54' E 004°29'0 0.0
2017-Feb-13 14:32N 51°54' E 004°29'0 0.0
2017-Feb-13 13:32N 51°54' E 004°29'0 0.0
2017-Feb-13 12:32N 51°54' E 004°29'0 0.0
2017-Feb-13 11:32N 51°54' E 004°29'0 0.0
2017-Feb-13 10:32N 51°54' E 004°29'0 0.0
2017-Feb-13 09:31N 51°54' E 004°29'0 0.0
2017-Feb-13 08:32N 51°54' E 004°29'0 0.0
2017-Feb-13 07:31N 51°54' E 004°29'0 0.0
2017-Feb-13 06:32N 51°54' E 004°29'0 0.0
2017-Feb-13 05:31N 51°54' E 004°29'0 0.0
2017-Feb-13 04:31N 51°54' E 004°29'0 0.0
2017-Feb-13 03:31N 51°54' E 004°29'0 0.0
2017-Feb-13 02:31N 51°54' E 004°29'0 0.0
2017-Feb-13 01:31N 51°54' E 004°29'0 0.0
2017-Feb-13 00:31N 51°54' E 004°29'0 0.0
2017-Feb-12 23:31N 51°54' E 004°29'0 0.0
2017-Feb-12 22:31N 51°54' E 004°29'0 0.0
2017-Feb-12 21:31N 51°54' E 004°29'0 0.0
2017-Feb-12 20:31N 51°54' E 004°29'0 0.0
2017-Feb-12 19:31N 51°54' E 004°29'0 0.0
2017-Feb-12 18:31N 51°54' E 004°29'0 0.0
2017-Feb-12 17:31N 51°54' E 004°29'0 0.0
2017-Feb-12 16:31N 51°54' E 004°29'0 0.0
2017-Feb-12 15:31N 51°54' E 004°29'0 0.0
2017-Feb-12 14:31N 51°54' E 004°29'0 0.0
2017-Feb-12 13:31N 51°54' E 004°29'0 0.0
2017-Feb-12 12:31N 51°54' E 004°29'0 0.0
2017-Feb-12 11:31N 51°54' E 004°29'0 0.0
2017-Feb-12 10:34N 51°54' E 004°29'0 0.0
2017-Feb-12 09:33N 51°54' E 004°29'0 0.0
2017-Feb-12 08:33N 51°54' E 004°29'0 0.0
2017-Feb-12 07:33N 51°54' E 004°29'0 0.0
2017-Feb-12 06:33N 51°54' E 004°29'0 0.0
2017-Feb-12 05:33N 51°54' E 004°29'0 0.0
2017-Feb-12 04:33N 51°54' E 004°29'0 0.0
2017-Feb-12 03:33N 51°54' E 004°29'0 0.0
2017-Feb-12 02:33N 51°54' E 004°29'0 0.0
2017-Feb-12 01:33N 51°54' E 004°29'0 0.0
2017-Feb-12 00:33N 51°54' E 004°29'0 0.0
2017-Feb-11 23:33N 51°54' E 004°29'0 0.0
2017-Feb-11 22:33N 51°54' E 004°29'0 0.0
2017-Feb-11 21:33N 51°54' E 004°29'0 0.0
2017-Feb-11 20:33N 51°54' E 004°29'0 0.0
2017-Feb-11 19:32N 51°54' E 004°29'0 0.0
2017-Feb-11 18:32N 51°54' E 004°29'0 0.0
2017-Feb-11 17:32N 51°54' E 004°29'0 0.0
2017-Feb-11 16:32N 51°54' E 004°29'0 0.0
2017-Feb-11 15:32N 51°54' E 004°29'0 0.0
2017-Feb-11 14:32N 51°54' E 004°29'0 0.0
2017-Feb-11 13:32N 51°54' E 004°29'0 0.0
2017-Feb-11 12:32N 51°54' E 004°29'0 0.0
2017-Feb-11 11:32N 51°54' E 004°29'0 0.0
2017-Feb-11 10:31N 51°54' E 004°29'0 0.1
2017-Feb-11 09:33N 51°54' E 004°29'5 4.6
2017-Feb-11 08:33N 51°54' E 004°21'7 7.3
2017-Feb-11 07:33N 51°57' E 004°11'7 6.9
2017-Feb-11 06:33N 51°60' E 004°00'9 8.7
2017-Feb-11 05:33N 52°03' E 003°47'  
Track history (hours):
 
Tides and Currents Weather Stations Pressure Air Temp Water Temp Dewpoint Dewpoint Depression Visibility Wind Speed Wind Dir Waves Ship Positions

Monte

Last reported at 2017-Feb-20 11:31 UTC. Time now 2017-Feb-28 12:53 UTC.
Position N 38°19' W 010°01'.
Warning: this ship's position is 8 days out of date.

Length 104 m; draft 5.6 m.

Type: Cargo ship. MMSI: 305777000.

Date/timePositionNaut miles runAvg speedWind from/ knotsBaromVisibWave heightAir tempDewpointWater temp
2017-Feb-20 11:31N 38°19' W 010°01'3110.3
2017-Feb-20 08:33N 38°49' W 010°08'1010.3
2017-Feb-20 07:33N 38°59' W 010°08'10 9.9
2017-Feb-20 06:33N 39°09' W 010°08'1010.4
2017-Feb-20 05:33N 39°20' W 010°08'1110.6
2017-Feb-20 04:33N 39°30' W 010°08'1110.5
2017-Feb-20 03:32N 39°41' W 010°08'1210.6
2017-Feb-20 02:24N 39°53' W 010°08'  
2017-Feb-17 08:33N 49°30' W 004°19'9 9.3
2017-Feb-17 07:33N 49°35' W 004°07'10 9.9
2017-Feb-17 06:33N 49°40' W 003°54'1110.5
2017-Feb-17 05:33N 49°46' W 003°40'1111.2
2017-Feb-17 04:33N 49°51' W 003°25'1111.3
2017-Feb-17 03:33N 49°57' W 003°10'1110.8
2017-Feb-17 02:33N 50°01' W 002°55'22 8.9
2017-Feb-17 00:04N 50°09' W 002°23'30 8.5
2017-Feb-16 20:33N 50°31' W 001°50'1010.5
2017-Feb-16 19:33N 50°39' W 001°39'1211.5
2017-Feb-16 18:34N 50°45' W 001°24'8 7.7
2017-Feb-16 17:33N 50°53' W 001°23'0 0.2
2017-Feb-16 16:07N 50°53' W 001°24'0 0.0
2017-Feb-16 08:31N 50°53' W 001°24'0 0.0
2017-Feb-15 22:16N 50°53' W 001°24'1 1.9
2017-Feb-15 21:33N 50°52' W 001°22'7 7.4
2017-Feb-15 20:34N 50°47' W 001°13'6 6.1
2017-Feb-15 19:34N 50°44' W 001°05'2 2.2
2017-Feb-15 18:33N 50°43' W 001°03'0 0.0
2017-Feb-15 17:33N 50°43' W 001°03'0 0.1
2017-Feb-15 16:33N 50°43' W 001°03'0 0.0
2017-Feb-15 15:33N 50°43' W 001°03'0 0.0
2017-Feb-15 14:33N 50°43' W 001°03'0 0.0
2017-Feb-15 13:33N 50°43' W 001°03'0 0.0
2017-Feb-15 12:33N 50°43' W 001°03'0 0.0
2017-Feb-15 11:33N 50°43' W 001°03'0 0.1
2017-Feb-15 10:33N 50°43' W 001°03'0 0.0
2017-Feb-15 09:32N 50°43' W 001°03'0 0.0
2017-Feb-15 08:32N 50°43' W 001°03'0 0.3
2017-Feb-15 07:33N 50°42' W 001°02'9 8.5
2017-Feb-15 06:33N 50°38' W 000°51'7 7.0
2017-Feb-15 05:33N 50°37' W 000°40'7 7.0
2017-Feb-15 04:33N 50°36' W 000°29'7 7.1
2017-Feb-15 03:33N 50°34' W 000°18'8 8.0
2017-Feb-15 02:33N 50°33' W 000°06'9 8.5
2017-Feb-15 01:30N 50°34' E 000°08'8 8.3
2017-Feb-15 00:33N 50°36' E 000°20'8 8.0
2017-Feb-14 23:33N 50°38' E 000°32'8 7.9
2017-Feb-14 22:33N 50°43' E 000°43'8 8.4
2017-Feb-14 21:33N 50°48' E 000°53'9 9.4
2017-Feb-14 20:33N 50°53' E 001°06'1010.4
2017-Feb-14 19:33N 50°60' E 001°18'1111.1
2017-Feb-14 18:33N 51°07' E 001°32'10 9.7
2017-Feb-14 17:33N 51°13' E 001°44'9 8.5
2017-Feb-14 16:33N 51°20' E 001°51'8 7.9
2017-Feb-14 15:33N 51°27' E 001°57'9 8.8
2017-Feb-14 14:33N 51°34' E 002°06'6210.3
2017-Feb-14 08:33N 52°04' E 003°34'1111.1
2017-Feb-14 07:34N 52°03' E 003°52'1110.7
2017-Feb-14 06:34N 51°58' E 004°08'1010.2
2017-Feb-14 05:34N 51°54' E 004°23'4 3.8
2017-Feb-14 04:33N 51°54' E 004°29'0 0.0
2017-Feb-14 03:33N 51°54' E 004°29'0 0.0
2017-Feb-14 02:33N 51°54' E 004°29'0 0.0
2017-Feb-14 01:33N 51°54' E 004°29'0 0.0
2017-Feb-14 00:33N 51°54' E 004°29'0 0.0
2017-Feb-13 23:33N 51°54' E 004°29'0 0.0
2017-Feb-13 22:33N 51°54' E 004°29'0 0.0
2017-Feb-13 21:33N 51°54' E 004°29'0 0.0
2017-Feb-13 20:33N 51°54' E 004°29'0 0.0
2017-Feb-13 19:33N 51°54' E 004°29'0 0.0
2017-Feb-13 18:33N 51°54' E 004°29'0 0.0
2017-Feb-13 17:33N 51°54' E 004°29'0 0.0
2017-Feb-13 16:32N 51°54' E 004°29'0 0.0
2017-Feb-13 15:33N 51°54' E 004°29'0 0.0
2017-Feb-13 14:32N 51°54' E 004°29'0 0.0
2017-Feb-13 13:32N 51°54' E 004°29'0 0.0
2017-Feb-13 12:32N 51°54' E 004°29'0 0.0
2017-Feb-13 11:32N 51°54' E 004°29'0 0.0
2017-Feb-13 10:32N 51°54' E 004°29'0 0.0
2017-Feb-13 09:31N 51°54' E 004°29'0 0.0
2017-Feb-13 08:32N 51°54' E 004°29'0 0.0
2017-Feb-13 07:31N 51°54' E 004°29'0 0.0
2017-Feb-13 06:32N 51°54' E 004°29'0 0.0
2017-Feb-13 05:31N 51°54' E 004°29'0 0.0
2017-Feb-13 04:31N 51°54' E 004°29'0 0.0
2017-Feb-13 03:31N 51°54' E 004°29'0 0.0
2017-Feb-13 02:31N 51°54' E 004°29'0 0.0
2017-Feb-13 01:31N 51°54' E 004°29'0 0.0
2017-Feb-13 00:31N 51°54' E 004°29'0 0.0
2017-Feb-12 23:31N 51°54' E 004°29'0 0.0
2017-Feb-12 22:31N 51°54' E 004°29'0 0.0
2017-Feb-12 21:31N 51°54' E 004°29'0 0.0
2017-Feb-12 20:31N 51°54' E 004°29'0 0.0
2017-Feb-12 19:31N 51°54' E 004°29'0 0.0
2017-Feb-12 18:31N 51°54' E 004°29'0 0.0
2017-Feb-12 17:31N 51°54' E 004°29'0 0.0
2017-Feb-12 16:31N 51°54' E 004°29'0 0.0
2017-Feb-12 15:31N 51°54' E 004°29'0 0.0
2017-Feb-12 14:31N 51°54' E 004°29'0 0.0
2017-Feb-12 13:31N 51°54' E 004°29'0 0.0
2017-Feb-12 12:31N 51°54' E 004°29'0 0.0
2017-Feb-12 11:31N 51°54' E 004°29'0 0.0
2017-Feb-12 10:34N 51°54' E 004°29'0 0.0
2017-Feb-12 09:33N 51°54' E 004°29'0 0.0
2017-Feb-12 08:33N 51°54' E 004°29'0 0.0
2017-Feb-12 07:33N 51°54' E 004°29'0 0.0
2017-Feb-12 06:33N 51°54' E 004°29'0 0.0
2017-Feb-12 05:33N 51°54' E 004°29'0 0.0
2017-Feb-12 04:33N 51°54' E 004°29'0 0.0
2017-Feb-12 03:33N 51°54' E 004°29'0 0.0
2017-Feb-12 02:33N 51°54' E 004°29'0 0.0
2017-Feb-12 01:33N 51°54' E 004°29'0 0.0
2017-Feb-12 00:33N 51°54' E 004°29'0 0.0
2017-Feb-11 23:33N 51°54' E 004°29'0 0.0
2017-Feb-11 22:33N 51°54' E 004°29'0 0.0
2017-Feb-11 21:33N 51°54' E 004°29'0 0.0
2017-Feb-11 20:33N 51°54' E 004°29'0 0.0
2017-Feb-11 19:32N 51°54' E 004°29'0 0.0
2017-Feb-11 18:32N 51°54' E 004°29'0 0.0
2017-Feb-11 17:32N 51°54' E 004°29'0 0.0
2017-Feb-11 16:32N 51°54' E 004°29'0 0.0
2017-Feb-11 15:32N 51°54' E 004°29'0 0.0
2017-Feb-11 14:32N 51°54' E 004°29'0 0.0
2017-Feb-11 13:32N 51°54' E 004°29'0 0.0
2017-Feb-11 12:32N 51°54' E 004°29'0 0.0
2017-Feb-11 11:32N 51°54' E 004°29'0 0.0
2017-Feb-11 10:31N 51°54' E 004°29'0 0.1
2017-Feb-11 09:33N 51°54' E 004°29'5 4.6
2017-Feb-11 08:33N 51°54' E 004°21'7 7.3
2017-Feb-11 07:33N 51°57' E 004°11'7 6.9
2017-Feb-11 06:33N 51°60' E 004°00'9 8.7
2017-Feb-11 05:33N 52°03' E 003°47'  

Dump ship's entire track history